ANA14 RJTT-RJOO
Flight info
| Callsign | ANA14 |
|---|---|
| Flight time | 0h 42m |
| Altitude | 32000 |
| Route | LAXAS4 LAXAS Y56 TOHME Y54 KOHWA Y546 AGPUK MIRAI ABENO IKOMA |
| Aircraft | B772/H-SDE2E3FGHIJ5LORVWXY/LB1D1 |
Departure
| Time | 2026-05-06 13:40 |
|---|---|
| Airport | Tokyo Haneda International Airport (RJTT) |
Arrival
| Time | 2026-05-06 14:23 |
|---|---|
| Airport | Osaka Itami International Airport (RJOO) |
| Time | Latitude | Longitude | Altitude | Speed | Heading |
|---|---|---|---|---|---|
| 2026-05-06 13:08 | 35.55408 | 139.78794 | 32 ft | 0 kts | 284° |
| 2026-05-06 13:23 | 35.55404 | 139.78814 | 32 ft | 4 kts | 284° |
| 2026-05-06 13:23 | 35.55397 | 139.78846 | 30 ft | 4 kts | 284° |
| 2026-05-06 13:23 | 35.55392 | 139.78872 | 31 ft | 3 kts | 285° |
| 2026-05-06 13:24 | 35.55382 | 139.78901 | 30 ft | 4 kts | 311° |
| 2026-05-06 13:24 | 35.55361 | 139.78921 | 30 ft | 4 kts | 331° |
| 2026-05-06 13:24 | 35.55341 | 139.78935 | 31 ft | 4 kts | 330° |
| 2026-05-06 13:24 | 35.55321 | 139.78950 | 31 ft | 1 kts | 330° |
| 2026-05-06 13:25 | 35.55320 | 139.78950 | 31 ft | 1 kts | 330° |
| 2026-05-06 13:28 | 35.55347 | 139.78933 | 31 ft | 6 kts | 340° |
| 2026-05-06 13:28 | 35.55393 | 139.78942 | 31 ft | 7 kts | 32° |
| 2026-05-06 13:28 | 35.55429 | 139.79001 | 31 ft | 10 kts | 59° |
| 2026-05-06 13:28 | 35.55429 | 139.79086 | 31 ft | 11 kts | 127° |
| 2026-05-06 13:29 | 35.55364 | 139.79142 | 31 ft | 12 kts | 149° |
| 2026-05-06 13:29 | 35.55291 | 139.79192 | 31 ft | 12 kts | 150° |
| 2026-05-06 13:29 | 35.55211 | 139.79248 | 30 ft | 14 kts | 150° |
| 2026-05-06 13:29 | 35.55120 | 139.79314 | 29 ft | 16 kts | 149° |
| 2026-05-06 13:30 | 35.55027 | 139.79380 | 29 ft | 16 kts | 150° |
| 2026-05-06 13:30 | 35.54933 | 139.79448 | 31 ft | 16 kts | 149° |
| 2026-05-06 13:30 | 35.54840 | 139.79514 | 31 ft | 16 kts | 150° |
| 2026-05-06 13:30 | 35.54774 | 139.79561 | 30 ft | 18 kts | 150° |
| 2026-05-06 13:31 | 35.54662 | 139.79640 | 27 ft | 19 kts | 150° |
| 2026-05-06 13:31 | 35.54551 | 139.79718 | 26 ft | 18 kts | 150° |
| 2026-05-06 13:31 | 35.54443 | 139.79795 | 31 ft | 18 kts | 150° |
| 2026-05-06 13:31 | 35.54299 | 139.79897 | 30 ft | 18 kts | 150° |
| 2026-05-06 13:32 | 35.54191 | 139.79974 | 29 ft | 18 kts | 150° |
| 2026-05-06 13:32 | 35.54118 | 139.80026 | 31 ft | 18 kts | 150° |
| 2026-05-06 13:32 | 35.54010 | 139.80102 | 25 ft | 18 kts | 150° |
| 2026-05-06 13:32 | 35.53909 | 139.80175 | 28 ft | 15 kts | 149° |
| 2026-05-06 13:33 | 35.53812 | 139.80182 | 29 ft | 15 kts | 195° |
| 2026-05-06 13:33 | 35.53710 | 139.80184 | 30 ft | 15 kts | 171° |
| 2026-05-06 13:33 | 35.53613 | 139.80220 | 31 ft | 15 kts | 149° |
| 2026-05-06 13:33 | 35.53524 | 139.80283 | 35 ft | 15 kts | 149° |
| 2026-05-06 13:34 | 35.53436 | 139.80346 | 38 ft | 15 kts | 150° |
| 2026-05-06 13:34 | 35.53347 | 139.80409 | 42 ft | 15 kts | 150° |
| 2026-05-06 13:34 | 35.53257 | 139.80472 | 44 ft | 15 kts | 150° |
| 2026-05-06 13:34 | 35.53169 | 139.80534 | 48 ft | 15 kts | 150° |
| 2026-05-06 13:35 | 35.53085 | 139.80593 | 48 ft | 10 kts | 154° |
| 2026-05-06 13:35 | 35.53016 | 139.80584 | 49 ft | 10 kts | 212° |
| 2026-05-06 13:35 | 35.52961 | 139.80527 | 49 ft | 10 kts | 222° |
| 2026-05-06 13:35 | 35.52907 | 139.80467 | 48 ft | 10 kts | 222° |
| 2026-05-06 13:36 | 35.52854 | 139.80407 | 48 ft | 10 kts | 222° |
| 2026-05-06 13:36 | 35.52800 | 139.80346 | 48 ft | 10 kts | 222° |
| 2026-05-06 13:36 | 35.52746 | 139.80286 | 47 ft | 10 kts | 223° |
| 2026-05-06 13:36 | 35.52693 | 139.80225 | 50 ft | 10 kts | 223° |
| 2026-05-06 13:37 | 35.52640 | 139.80165 | 50 ft | 10 kts | 223° |
| 2026-05-06 13:37 | 35.52577 | 139.80146 | 49 ft | 10 kts | 155° |
| 2026-05-06 13:37 | 35.52525 | 139.80205 | 50 ft | 10 kts | 130° |
| 2026-05-06 13:37 | 35.52487 | 139.80256 | 52 ft | 0 kts | 133° |
| 2026-05-06 13:38 | 35.52478 | 139.80268 | 50 ft | 5 kts | 133° |
| 2026-05-06 13:39 | 35.52448 | 139.80309 | 49 ft | 8 kts | 133° |
| 2026-05-06 13:39 | 35.52432 | 139.80374 | 53 ft | 10 kts | 68° |
| 2026-05-06 13:39 | 35.52494 | 139.80452 | 51 ft | 16 kts | 43° |
| 2026-05-06 13:39 | 35.52614 | 139.80587 | 52 ft | 37 kts | 43° |
| 2026-05-06 13:40 | 35.53023 | 139.81047 | 48 ft | 126 kts | 42° |
| 2026-05-06 13:40 | 35.53865 | 139.81968 | 320 ft | 181 kts | 43° |
| 2026-05-06 13:40 | 35.54830 | 139.82990 | 1314 ft | 189 kts | 42° |
| 2026-05-06 13:40 | 35.55869 | 139.84120 | 2107 ft | 214 kts | 47° |
| 2026-05-06 13:41 | 35.56627 | 139.85754 | 2310 ft | 232 kts | 84° |
| 2026-05-06 13:41 | 35.56582 | 139.87063 | 2528 ft | 234 kts | 107° |
| 2026-05-06 13:41 | 35.56483 | 139.87527 | 2623 ft | 238 kts | 111° |
| 2026-05-06 13:41 | 35.55909 | 139.89494 | 3015 ft | 256 kts | 115° |
| 2026-05-06 13:42 | 35.55262 | 139.91560 | 3630 ft | 266 kts | 115° |
| 2026-05-06 13:42 | 35.54335 | 139.93537 | 4279 ft | 265 kts | 139° |
| 2026-05-06 13:42 | 35.52816 | 139.94682 | 5088 ft | 259 kts | 167° |
| 2026-05-06 13:42 | 35.51045 | 139.94905 | 5862 ft | 256 kts | 190° |
| 2026-05-06 13:43 | 35.49280 | 139.94515 | 6556 ft | 261 kts | 194° |
| 2026-05-06 13:43 | 35.47492 | 139.94080 | 7380 ft | 261 kts | 194° |
| 2026-05-06 13:43 | 35.45763 | 139.93462 | 8058 ft | 260 kts | 211° |
| 2026-05-06 13:43 | 35.44354 | 139.92075 | 8773 ft | 261 kts | 228° |
| 2026-05-06 13:44 | 35.43119 | 139.90439 | 9598 ft | 262 kts | 229° |
| 2026-05-06 13:44 | 35.41885 | 139.88784 | 10323 ft | 267 kts | 229° |
| 2026-05-06 13:44 | 35.40584 | 139.87034 | 10558 ft | 290 kts | 229° |
| 2026-05-06 13:44 | 35.39165 | 139.85130 | 10756 ft | 314 kts | 229° |
| 2026-05-06 13:45 | 35.37632 | 139.83082 | 11062 ft | 334 kts | 228° |
| 2026-05-06 13:45 | 35.34400 | 139.78784 | 12466 ft | 350 kts | 228° |
| 2026-05-06 13:45 | 35.32743 | 139.76588 | 13308 ft | 353 kts | 228° |
| 2026-05-06 13:46 | 35.31079 | 139.74398 | 14119 ft | 357 kts | 227° |
| 2026-05-06 13:46 | 35.29266 | 139.72325 | 14892 ft | 360 kts | 223° |
| 2026-05-06 13:46 | 35.27347 | 139.70351 | 15714 ft | 361 kts | 222° |
| 2026-05-06 13:46 | 35.25417 | 139.68407 | 16551 ft | 361 kts | 223° |
| 2026-05-06 13:47 | 35.23461 | 139.66424 | 17321 ft | 364 kts | 224° |
| 2026-05-06 13:47 | 35.21516 | 139.64430 | 18069 ft | 366 kts | 224° |
| 2026-05-06 13:47 | 35.19566 | 139.62413 | 18792 ft | 367 kts | 224° |
| 2026-05-06 13:47 | 35.19395 | 139.62237 | 18851 ft | 367 kts | 225° |
| 2026-05-06 13:48 | 35.19066 | 139.61895 | 18969 ft | 368 kts | 224° |
| 2026-05-06 13:48 | 35.17094 | 139.59844 | 19638 ft | 369 kts | 224° |
| 2026-05-06 13:48 | 35.15160 | 139.57831 | 20265 ft | 370 kts | 224° |
| 2026-05-06 13:48 | 35.13166 | 139.55754 | 20868 ft | 373 kts | 224° |
| 2026-05-06 13:49 | 35.11181 | 139.53691 | 21435 ft | 376 kts | 223° |
| 2026-05-06 13:49 | 35.09232 | 139.51587 | 21965 ft | 372 kts | 229° |
| 2026-05-06 13:49 | 35.07731 | 139.49046 | 22319 ft | 377 kts | 241° |
| 2026-05-06 13:49 | 35.06697 | 139.46118 | 22419 ft | 375 kts | 253° |
| 2026-05-06 13:50 | 35.06167 | 139.42987 | 22429 ft | 380 kts | 256° |
| 2026-05-06 13:50 | 35.05715 | 139.40079 | 22444 ft | 381 kts | 256° |
| 2026-05-06 13:50 | 35.05242 | 139.37086 | 22444 ft | 380 kts | 256° |
| 2026-05-06 13:50 | 35.04729 | 139.33922 | 22443 ft | 380 kts | 256° |
| 2026-05-06 13:51 | 35.04207 | 139.30769 | 22445 ft | 379 kts | 256° |
| 2026-05-06 13:51 | 35.03758 | 139.28098 | 22443 ft | 379 kts | 256° |
| 2026-05-06 13:51 | 35.03225 | 139.24949 | 22791 ft | 381 kts | 259° |
| 2026-05-06 13:51 | 35.02689 | 139.21752 | 22568 ft | 387 kts | 260° |
| 2026-05-06 13:52 | 35.02161 | 139.18570 | 22060 ft | 384 kts | 257° |
| 2026-05-06 13:52 | 35.01639 | 139.15385 | 22213 ft | 374 kts | 256° |
| 2026-05-06 13:52 | 35.01120 | 139.12273 | 22336 ft | 378 kts | 256° |
| 2026-05-06 13:52 | 35.00590 | 139.09107 | 22718 ft | 384 kts | 255° |
| 2026-05-06 13:53 | 35.00057 | 139.05917 | 23288 ft | 385 kts | 255° |
| 2026-05-06 13:53 | 34.99518 | 139.02702 | 23776 ft | 389 kts | 255° |
| 2026-05-06 13:53 | 34.98994 | 138.99463 | 24273 ft | 390 kts | 257° |
| 2026-05-06 13:53 | 34.98650 | 138.96211 | 24763 ft | 393 kts | 262° |
| 2026-05-06 13:54 | 34.98483 | 138.92883 | 25223 ft | 395 kts | 262° |
| 2026-05-06 13:54 | 34.98317 | 138.89520 | 25655 ft | 397 kts | 263° |
| 2026-05-06 13:54 | 34.98146 | 138.86144 | 26580 ft | 400 kts | 265° |
| 2026-05-06 13:54 | 34.97970 | 138.82752 | 26900 ft | 404 kts | 268° |
| 2026-05-06 13:55 | 34.97790 | 138.79252 | 26861 ft | 419 kts | 269° |
| 2026-05-06 13:55 | 34.97603 | 138.75662 | 27091 ft | 426 kts | 266° |
| 2026-05-06 13:55 | 34.97408 | 138.72020 | 27188 ft | 437 kts | 266° |
| 2026-05-06 13:55 | 34.97203 | 138.68253 | 27207 ft | 451 kts | 266° |
| 2026-05-06 13:56 | 34.96991 | 138.64396 | 27360 ft | 457 kts | 266° |
| 2026-05-06 13:56 | 34.96784 | 138.60645 | 28247 ft | 439 kts | 266° |
| 2026-05-06 13:56 | 34.96583 | 138.57012 | 29334 ft | 421 kts | 266° |
| 2026-05-06 13:56 | 34.96387 | 138.53482 | 29935 ft | 415 kts | 266° |
| 2026-05-06 13:57 | 34.95993 | 138.46395 | 30004 ft | 420 kts | 266° |
| 2026-05-06 13:57 | 34.95594 | 138.39308 | 29997 ft | 417 kts | 266° |
| 2026-05-06 13:58 | 34.95193 | 138.32258 | 30001 ft | 416 kts | 266° |
| 2026-05-06 13:58 | 34.94791 | 138.25251 | 30017 ft | 416 kts | 266° |
| 2026-05-06 13:59 | 34.94381 | 138.18193 | 29999 ft | 417 kts | 266° |
| 2026-05-06 13:59 | 34.93971 | 138.11180 | 30014 ft | 417 kts | 266° |
| 2026-05-06 14:00 | 34.93557 | 138.04123 | 29971 ft | 417 kts | 266° |
| 2026-05-06 14:00 | 34.93144 | 137.97107 | 30012 ft | 417 kts | 266° |
| 2026-05-06 14:01 | 34.92721 | 137.90059 | 30020 ft | 417 kts | 266° |
| 2026-05-06 14:01 | 34.92297 | 137.82992 | 29998 ft | 418 kts | 266° |
| 2026-05-06 14:02 | 34.91882 | 137.75919 | 29992 ft | 418 kts | 266° |
| 2026-05-06 14:02 | 34.91234 | 137.68887 | 30031 ft | 418 kts | 261° |
| 2026-05-06 14:03 | 34.89759 | 137.62019 | 30002 ft | 420 kts | 253° |
| 2026-05-06 14:03 | 34.87727 | 137.55389 | 30024 ft | 421 kts | 252° |
| 2026-05-06 14:04 | 34.85684 | 137.48682 | 29996 ft | 422 kts | 252° |
| 2026-05-06 14:04 | 34.83716 | 137.41960 | 29996 ft | 421 kts | 253° |
| 2026-05-06 14:05 | 34.81812 | 137.35218 | 30002 ft | 420 kts | 253° |
| 2026-05-06 14:05 | 34.79913 | 137.28530 | 29995 ft | 420 kts | 253° |
| 2026-05-06 14:06 | 34.77993 | 137.21817 | 29999 ft | 420 kts | 253° |
| 2026-05-06 14:06 | 34.76156 | 137.15419 | 30003 ft | 420 kts | 253° |
| 2026-05-06 14:07 | 34.74226 | 137.08711 | 30000 ft | 420 kts | 253° |
| 2026-05-06 14:07 | 34.72306 | 137.02049 | 30012 ft | 420 kts | 253° |
| 2026-05-06 14:08 | 34.70368 | 136.95347 | 30018 ft | 420 kts | 253° |
| 2026-05-06 14:08 | 34.68420 | 136.88652 | 30000 ft | 420 kts | 253° |
| 2026-05-06 14:09 | 34.66465 | 136.81953 | 30001 ft | 420 kts | 253° |
| 2026-05-06 14:09 | 34.64508 | 136.75262 | 29996 ft | 416 kts | 253° |
| 2026-05-06 14:10 | 34.63555 | 136.72016 | 29897 ft | 398 kts | 253° |
| 2026-05-06 14:10 | 34.62645 | 136.68923 | 29241 ft | 385 kts | 253° |
| 2026-05-06 14:10 | 34.61745 | 136.65851 | 28588 ft | 386 kts | 253° |
| 2026-05-06 14:10 | 34.60860 | 136.62831 | 28132 ft | 382 kts | 253° |
| 2026-05-06 14:11 | 34.59972 | 136.59809 | 27686 ft | 377 kts | 253° |
| 2026-05-06 14:11 | 34.59097 | 136.56834 | 27242 ft | 373 kts | 253° |
| 2026-05-06 14:11 | 34.58228 | 136.53879 | 26779 ft | 370 kts | 253° |
| 2026-05-06 14:11 | 34.57362 | 136.50943 | 26337 ft | 367 kts | 253° |
| 2026-05-06 14:12 | 34.56505 | 136.48036 | 25879 ft | 365 kts | 253° |
| 2026-05-06 14:12 | 34.55651 | 136.45146 | 25428 ft | 362 kts | 253° |
| 2026-05-06 14:12 | 34.54812 | 136.42306 | 24981 ft | 360 kts | 253° |
| 2026-05-06 14:12 | 34.53967 | 136.39447 | 24540 ft | 360 kts | 253° |
| 2026-05-06 14:13 | 34.53117 | 136.36574 | 24099 ft | 363 kts | 252° |
| 2026-05-06 14:13 | 34.52263 | 136.33701 | 23631 ft | 364 kts | 252° |
| 2026-05-06 14:13 | 34.51478 | 136.30791 | 23197 ft | 360 kts | 258° |
| 2026-05-06 14:13 | 34.51018 | 136.27814 | 22742 ft | 359 kts | 263° |
| 2026-05-06 14:14 | 34.50688 | 136.24819 | 22291 ft | 358 kts | 263° |
| 2026-05-06 14:14 | 34.50365 | 136.21831 | 21837 ft | 357 kts | 263° |
| 2026-05-06 14:14 | 34.50009 | 136.18857 | 21400 ft | 356 kts | 262° |
| 2026-05-06 14:14 | 34.49634 | 136.15933 | 20948 ft | 356 kts | 262° |
| 2026-05-06 14:15 | 34.49247 | 136.12976 | 20506 ft | 354 kts | 262° |
| 2026-05-06 14:15 | 34.49056 | 136.10021 | 20035 ft | 351 kts | 271° |
| 2026-05-06 14:15 | 34.49244 | 136.07075 | 19542 ft | 349 kts | 277° |
| 2026-05-06 14:15 | 34.49680 | 136.04185 | 19110 ft | 349 kts | 284° |
| 2026-05-06 14:16 | 34.50429 | 136.01401 | 18794 ft | 346 kts | 287° |
| 2026-05-06 14:16 | 34.51229 | 135.98634 | 18310 ft | 348 kts | 287° |
| 2026-05-06 14:16 | 34.52011 | 135.95909 | 17542 ft | 334 kts | 287° |
| 2026-05-06 14:16 | 34.52753 | 135.93288 | 16847 ft | 326 kts | 287° |
| 2026-05-06 14:17 | 34.53489 | 135.90659 | 16159 ft | 331 kts | 287° |
| 2026-05-06 14:17 | 34.54219 | 135.88031 | 15453 ft | 333 kts | 287° |
| 2026-05-06 14:17 | 34.54950 | 135.85383 | 14785 ft | 329 kts | 287° |
| 2026-05-06 14:17 | 34.55671 | 135.82764 | 14057 ft | 326 kts | 287° |
| 2026-05-06 14:18 | 34.56392 | 135.80137 | 13137 ft | 328 kts | 287° |
| 2026-05-06 14:18 | 34.57043 | 135.77769 | 12281 ft | 324 kts | 287° |
| 2026-05-06 14:18 | 34.57751 | 135.75193 | 11326 ft | 319 kts | 287° |
| 2026-05-06 14:18 | 34.58213 | 135.73512 | 10708 ft | 315 kts | 287° |
| 2026-05-06 14:19 | 34.58900 | 135.71010 | 9786 ft | 310 kts | 287° |
| 2026-05-06 14:19 | 34.59816 | 135.67732 | 8547 ft | 307 kts | 288° |
| 2026-05-06 14:19 | 34.60524 | 135.65291 | 7593 ft | 305 kts | 290° |
| 2026-05-06 14:19 | 34.61632 | 135.63065 | 6723 ft | 319 kts | 311° |
| 2026-05-06 14:20 | 34.63382 | 135.61386 | 6289 ft | 322 kts | 328° |
| 2026-05-06 14:20 | 34.64650 | 135.60535 | 6138 ft | 305 kts | 324° |
| 2026-05-06 14:20 | 34.66122 | 135.58823 | 5927 ft | 285 kts | 306° |
| 2026-05-06 14:20 | 34.67358 | 135.56961 | 4778 ft | 303 kts | 312° |
| 2026-05-06 14:21 | 34.68995 | 135.55149 | 3098 ft | 332 kts | 319° |
| 2026-05-06 14:21 | 34.70732 | 135.53290 | 2744 ft | 317 kts | 314° |
| 2026-05-06 14:21 | 34.72111 | 135.51393 | 2824 ft | 280 kts | 308° |
| 2026-05-06 14:21 | 34.73443 | 135.49626 | 1942 ft | 274 kts | 316° |
| 2026-05-06 14:22 | 34.74757 | 135.48130 | 829 ft | 274 kts | 315° |
| 2026-05-06 14:22 | 34.76080 | 135.46569 | 581 ft | 247 kts | 314° |
| 2026-05-06 14:22 | 34.77260 | 135.45131 | 103 ft | 233 kts | 315° |
| 2026-05-06 14:22 | 34.78208 | 135.43991 | 50 ft | 110 kts | 314° |
| 2026-05-06 14:23 | 34.78356 | 135.43810 | 51 ft | 0 kts | 316° |
| 2026-05-06 14:23 | 34.78422 | 135.43753 | 51 ft | 24 kts | 332° |
| 2026-05-06 14:23 | 34.78568 | 135.43703 | 49 ft | 21 kts | 344° |
| 2026-05-06 14:23 | 34.78697 | 135.43699 | 51 ft | 17 kts | 22° |
| 2026-05-06 14:24 | 34.78789 | 135.43788 | 47 ft | 18 kts | 44° |
| 2026-05-06 14:24 | 34.78877 | 135.43891 | 50 ft | 18 kts | 46° |
| 2026-05-06 14:24 | 34.78931 | 135.43974 | 48 ft | 10 kts | 43° |
| 2026-05-06 14:24 | 34.78989 | 135.44011 | 51 ft | 4 kts | 23° |
| 2026-05-06 14:25 | 34.79011 | 135.44022 | 51 ft | 3 kts | 22° |
| 2026-05-06 14:25 | 34.79016 | 135.44025 | 51 ft | 0 kts | 22° |
| 2026-05-06 14:25 | 34.79019 | 135.44026 | 51 ft | 2 kts | 22° |
| 2026-05-06 14:25 | 34.79021 | 135.44027 | 51 ft | 0 kts | 22° |